Time;durP1;ratioP1;P1;durP2;ratioP2;P2;SDS_P1;SDS_P2;PMS_P1;PMS_P2;Temp;Humidity;BMP_temperature;BMP_pressure;BME280_temperature;BME280_humidity;BME280_pressure;Samples;Min_cycle;Max_cycle;Signal;HPM_P1;HPM_P2
2021/07/02 00:00:34;;;;;;;196.57;47.63;;;;;;;30.92;nan;100820.19;5055658;28;20500;-43
2021/07/02 00:03:02;;;;;;;197.17;48.47;;;;;;;30.94;nan;100815.66;5054514;28;20491;-44
2021/07/02 00:05:30;;;;;;;575.97;67.77;;;;;;;30.00;nan;100821.19;5055429;28;20920;-43
2021/07/02 00:07:57;;;;;;;185.67;50.00;;;;;;;30.40;nan;100824.09;5054402;28;20928;-43
2021/07/02 00:10:25;;;;;;;343.03;55.30;;;;;;;30.33;nan;100818.16;5055790;28;20556;-45
2021/07/02 00:12:54;;;;;;;161.17;47.70;;;;;;;30.61;nan;100814.38;5054273;28;20803;-43
2021/07/02 00:15:22;;;;;;;400.90;57.07;;;;;;;30.29;nan;100822.72;5055607;28;20534;-45
2021/07/02 00:17:49;;;;;;;280.93;48.33;;;;;;;29.71;nan;100815.19;5054075;28;20480;-44
2021/07/02 00:20:17;;;;;;;275.67;47.93;;;;;;;29.96;nan;100815.13;5055418;28;20479;-42
2021/07/02 00:22:44;;;;;;;426.77;60.40;;;;;;;29.74;nan;100810.63;5054256;28;20486;-42
2021/07/02 00:25:13;;;;;;;213.07;51.43;;;;;;;30.44;nan;100812.38;5055435;28;20452;-43
2021/07/02 00:27:40;;;;;;;313.10;53.40;;;;;;;29.65;nan;100822.47;5053634;28;20483;-47
2021/07/02 00:30:10;;;;;;;269.17;48.63;;;;;;;29.75;nan;100809.72;5054991;28;20477;-45
2021/07/02 00:32:38;;;;;;;235.30;46.63;;;;;;;30.02;nan;100814.91;5053593;28;20475;-43
2021/07/02 00:35:06;;;;;;;433.70;54.53;;;;;;;30.20;nan;100817.78;5055354;28;20511;-46
2021/07/02 00:37:34;;;;;;;278.60;50.03;;;;;;;29.75;nan;100823.03;5053536;28;20754;-44
2021/07/02 00:40:01;;;;;;;180.30;46.40;;;;;;;29.81;nan;100815.72;5055107;28;20486;-45
2021/07/02 00:42:29;;;;;;;208.53;44.90;;;;;;;29.46;nan;100816.97;5053909;28;20502;-44
2021/07/02 00:44:56;;;;;;;131.10;42.10;;;;;;;29.06;nan;100819.25;5055123;28;20459;-45
2021/07/02 00:47:25;;;;;;;124.77;43.00;;;;;;;29.57;nan;100818.41;5053550;28;20497;-45
2021/07/02 00:49:53;;;;;;;257.47;50.37;;;;;;;29.96;nan;100823.09;5055023;28;20483;-42
2021/07/02 00:52:21;;;;;;;233.47;49.87;;;;;;;30.17;nan;100817.91;5053738;28;20480;-47
2021/07/02 00:54:52;;;;;;;268.10;49.73;;;;;;;29.71;nan;100826.72;5054970;28;20463;-45
2021/07/02 00:57:20;;;;;;;142.13;43.13;;;;;;;29.60;nan;100823.59;5053481;28;20483;-43
2021/07/02 00:59:47;;;;;;;228.10;50.63;;;;;;;29.63;nan;100826.13;5054884;28;20923;-44
2021/07/02 01:02:15;;;;;;;200.07;47.57;;;;;;;29.92;nan;100835.66;5053700;28;20484;-44
2021/07/02 01:04:44;;;;;;;157.10;44.80;;;;;;;29.16;nan;100819.78;5055065;28;20461;-44
2021/07/02 01:07:12;;;;;;;184.30;46.13;;;;;;;29.54;nan;100829.13;5053161;28;20486;-46
2021/07/02 01:09:41;;;;;;;279.10;51.10;;;;;;;29.07;nan;100817.47;5055103;28;20490;-50
2021/07/02 01:12:10;;;;;;;343.40;53.67;;;;;;;29.38;nan;100822.53;5053588;28;21046;-44
2021/07/02 01:14:37;;;;;;;172.53;48.23;;;;;;;29.86;nan;100816.41;5055062;28;20463;-43
2021/07/02 01:17:05;;;;;;;251.43;49.07;;;;;;;29.76;nan;100819.44;5053228;28;20483;-47
2021/07/02 01:19:33;;;;;;;264.33;49.87;;;;;;;30.09;nan;100814.69;5054602;28;20475;-43
2021/07/02 01:22:02;;;;;;;190.40;50.03;;;;;;;30.16;nan;100813.50;5053320;28;20480;-44
2021/07/02 01:24:30;;;;;;;308.13;53.60;;;;;;;30.19;nan;100816.03;5054822;28;20891;-46
2021/07/02 01:26:58;;;;;;;271.13;49.60;;;;;;;29.19;nan;100819.69;5053289;28;20475;-46
2021/07/02 01:29:25;;;;;;;280.40;57.07;;;;;;;29.60;nan;100818.25;5054441;28;20909;-46
2021/07/02 01:31:53;;;;;;;146.83;47.50;;;;;;;29.90;nan;100818.03;5053138;28;20471;-46
2021/07/02 01:34:20;;;;;;;444.97;59.90;;;;;;;29.37;nan;100819.94;5054657;28;20490;-44
2021/07/02 01:36:48;;;;;;;177.87;53.53;;;;;;;30.10;nan;100819.94;5052979;28;20471;-44
2021/07/02 01:39:17;;;;;;;117.87;47.10;;;;;;;29.28;nan;100821.16;5054384;28;20960;-47
2021/07/02 01:41:45;;;;;;;130.80;47.93;;;;;;;29.45;nan;100823.19;5053142;28;20959;-45
2021/07/02 01:44:12;;;;;;;133.37;49.60;;;;;;;29.92;nan;100818.81;5058572;28;20457;-43
2021/07/02 01:46:40;;;;;;;142.67;49.33;;;;;;;30.04;nan;100828.97;5056616;28;20475;-45
2021/07/02 01:49:07;;;;;;;150.60;50.57;;;;;;;29.88;nan;100833.19;5058300;28;20472;-44
2021/07/02 01:51:35;;;;;;;117.17;46.17;;;;;;;30.05;nan;100833.38;5057112;28;20477;-47
2021/07/02 01:54:02;;;;;;;116.27;44.17;;;;;;;29.16;nan;100827.75;5058259;28;20474;-45
2021/07/02 01:56:31;;;;;;;89.80;39.90;;;;;;;29.14;nan;100837.59;5053858;28;20481;-44
2021/07/02 01:58:59;;;;;;;88.70;38.07;;;;;;;29.27;nan;100839.81;5058369;28;20677;-43
2021/07/02 02:01:29;;;;;;;108.17;37.83;;;;;;;29.09;nan;100842.19;5057020;28;20769;-44
2021/07/02 02:03:57;;;;;;;85.80;35.77;;;;;;;29.14;nan;100842.00;5058012;28;20468;-43
2021/07/02 02:06:24;;;;;;;88.60;32.30;;;;;;;29.12;nan;100844.75;5049206;28;20456;-44
2021/07/02 02:08:52;;;;;;;87.83;33.07;;;;;;;28.75;nan;100848.63;5072170;28;20455;-44
2021/07/02 02:11:19;;;;;;;59.63;28.60;;;;;;;28.76;nan;100845.03;5057330;28;20481;-44
2021/07/02 02:13:48;;;;;;;62.60;29.00;;;;;;;29.73;nan;100846.09;5057996;28;20489;-42
2021/07/02 02:16:16;;;;;;;54.70;27.87;;;;;;;29.78;nan;100849.47;5056544;28;20465;-43
2021/07/02 02:18:44;;;;;;;56.00;26.10;;;;;;;29.36;nan;100850.09;5057706;28;20489;-44
2021/07/02 02:21:12;;;;;;;56.70;27.30;;;;;;;29.43;nan;100848.09;5056019;28;20945;-44
2021/07/02 02:23:39;;;;;;;54.87;26.30;;;;;;;29.35;nan;100854.53;5057676;28;20488;-42
2021/07/02 02:26:07;;;;;;;54.10;25.43;;;;;;;29.65;nan;100849.03;5057431;28;20467;-43
2021/07/02 02:28:35;;;;;;;76.40;28.37;;;;;;;29.45;nan;100859.50;5055456;28;20483;-43
2021/07/02 02:31:04;;;;;;;58.23;28.47;;;;;;;29.03;nan;100855.66;5057583;28;20484;-43
2021/07/02 02:33:32;;;;;;;67.70;27.60;;;;;;;29.42;nan;100846.34;5056123;28;20542;-42
2021/07/02 02:35:59;;;;;;;70.03;30.20;;;;;;;29.28;nan;100849.50;5056884;28;20459;-43
2021/07/02 02:38:27;;;;;;;58.10;27.90;;;;;;;29.12;nan;100850.06;5056468;28;20506;-44
2021/07/02 02:40:54;;;;;;;56.07;26.57;;;;;;;29.27;nan;100855.75;5057498;28;20792;-46
2021/07/02 02:43:22;;;;;;;60.13;27.27;;;;;;;29.12;nan;100855.38;5055998;28;20486;-44
2021/07/02 02:45:49;;;;;;;61.47;26.97;;;;;;;29.65;nan;100850.84;5056944;28;20463;-43
2021/07/02 02:48:18;;;;;;;65.00;30.00;;;;;;;28.88;nan;100852.63;5055945;28;20530;-42
2021/07/02 02:50:46;;;;;;;51.23;27.20;;;;;;;28.24;nan;100851.13;5057422;28;20476;-46
2021/07/02 02:53:13;;;;;;;55.20;26.60;;;;;;;28.61;nan;100862.34;5055762;28;20795;-45
2021/07/02 02:55:41;;;;;;;73.80;27.67;;;;;;;28.61;nan;100865.84;5056239;28;20463;-44
2021/07/02 02:58:08;;;;;;;62.63;27.53;;;;;;;28.83;nan;100865.16;5055480;28;20490;-42
2021/07/02 03:00:36;;;;;;;68.43;27.23;;;;;;;28.85;nan;100873.91;5056978;28;20475;-44
2021/07/02 03:03:04;;;;;;;49.67;24.77;;;;;;;28.77;nan;100860.03;5055982;28;20509;-43
2021/07/02 03:05:34;;;;;;;58.30;27.27;;;;;;;28.50;nan;100868.00;5056895;28;20454;-44
2021/07/02 03:08:01;;;;;;;66.43;26.90;;;;;;;28.96;nan;100866.50;5055278;28;20487;-43
2021/07/02 03:10:29;;;;;;;49.93;26.33;;;;;;;28.39;nan;100874.50;5056932;28;20482;-45
2021/07/02 03:12:57;;;;;;;58.70;26.07;;;;;;;28.17;nan;100883.09;5055591;28;20485;-44
2021/07/02 03:15:24;;;;;;;45.73;24.10;;;;;;;27.72;nan;100883.50;5056365;28;20454;-43
2021/07/02 03:17:52;;;;;;;53.90;25.27;;;;;;;28.63;nan;100879.94;5055134;28;20500;-42
2021/07/02 03:20:19;;;;;;;55.63;26.20;;;;;;;28.63;nan;100879.06;5056753;28;20476;-44
2021/07/02 03:22:48;;;;;;;55.70;26.40;;;;;;;28.43;nan;100884.09;5055228;28;20569;-43
2021/07/02 03:25:16;;;;;;;60.97;26.67;;;;;;;28.82;nan;100880.19;5056720;28;20457;-43
2021/07/02 03:27:43;;;;;;;64.77;27.77;;;;;;;28.76;nan;100884.84;5054791;28;20913;-42
2021/07/02 03:30:13;;;;;;;61.37;28.07;;;;;;;28.61;nan;100884.41;5056157;28;20521;-46
2021/07/02 03:32:41;;;;;;;61.17;28.53;;;;;;;28.69;nan;100881.50;5055053;28;20937;-42
2021/07/02 03:35:10;;;;;;;60.43;29.27;;;;;;;28.32;nan;100886.22;5056624;28;20476;-43
2021/07/02 03:37:38;;;;;;;58.37;27.97;;;;;;;28.91;nan;100889.66;5054736;28;20956;-43
2021/07/02 03:40:10;;;;;;;59.70;26.90;;;;;;;28.63;nan;100885.25;5056035;28;20792;-45
2021/07/02 03:42:37;;;;;;;58.13;27.60;;;;;;;28.53;nan;100887.34;5054842;28;20476;-43
2021/07/02 03:45:06;;;;;;;65.27;26.07;;;;;;;28.50;nan;100890.06;5056374;28;20456;-43
2021/07/02 03:47:34;;;;;;;54.47;28.00;;;;;;;28.64;nan;100891.41;5054282;28;20782;-46
2021/07/02 03:50:02;;;;;;;54.70;26.93;;;;;;;28.22;nan;100895.34;5055722;28;20490;-43
2021/07/02 03:52:29;;;;;;;54.90;26.80;;;;;;;28.79;nan;100892.69;5055160;28;20927;-42
2021/07/02 03:54:57;;;;;;;66.43;28.43;;;;;;;28.46;nan;100899.06;5055906;28;20456;-44
2021/07/02 03:57:26;;;;;;;62.90;32.73;;;;;;;28.84;nan;100904.03;5054164;28;20487;-44
2021/07/02 03:59:53;;;;;;;66.90;27.30;;;;;;;29.14;nan;100909.28;5055907;28;20477;-43
2021/07/02 04:02:21;;;;;;;53.13;26.50;;;;;;;29.55;nan;100911.44;5054956;28;20793;-44
2021/07/02 04:04:48;;;;;;;70.10;28.20;;;;;;;28.68;nan;100909.84;5055858;28;20462;-42
2021/07/02 04:07:16;;;;;;;53.60;25.00;;;;;;;28.63;nan;100901.16;5053206;28;20486;-44
2021/07/02 04:09:44;;;;;;;50.57;24.80;;;;;;;28.75;nan;100909.66;5055797;28;20486;-43
2021/07/02 04:12:13;;;;;;;67.60;26.30;;;;;;;28.69;nan;100908.06;5054248;28;21250;-44
2021/07/02 04:14:44;;;;;;;57.13;26.47;;;;;;;28.85;nan;100911.06;5055786;28;20549;-45
2021/07/02 04:17:11;;;;;;;55.50;24.90;;;;;;;28.34;nan;100916.19;5053919;28;20493;-44
2021/07/02 04:19:39;;;;;;;45.97;24.70;;;;;;;28.53;nan;100919.16;5055172;28;20487;-44
2021/07/02 04:22:07;;;;;;;48.23;23.87;;;;;;;27.84;nan;100914.94;5053946;28;20554;-42
2021/07/02 04:24:35;;;;;;;76.23;25.93;;;;;;;28.01;nan;100918.91;5055604;28;20451;-43
2021/07/02 04:27:11;;;;;;;59.47;25.53;;;;;;;27.99;nan;100924.25;5054000;28;20565;-43
2021/07/02 04:29:39;;;;;;;45.60;22.90;;;;;;;27.67;nan;100933.13;5055371;28;20475;-42
2021/07/02 04:32:08;;;;;;;50.20;24.17;;;;;;;28.00;nan;100922.47;5053855;28;20478;-43
2021/07/02 04:34:36;;;;;;;54.63;26.00;;;;;;;28.48;nan;100928.16;5055331;28;20463;-42
2021/07/02 04:37:04;;;;;;;58.27;25.97;;;;;;;28.42;nan;100930.13;5053564;28;20478;-43
2021/07/02 04:39:34;;;;;;;52.53;26.03;;;;;;;28.78;nan;100930.78;5055142;28;20501;-48
2021/07/02 04:42:02;;;;;;;50.80;23.30;;;;;;;28.56;nan;100926.16;5053907;28;20508;-43
2021/07/02 04:44:29;;;;;;;49.97;25.30;;;;;;;28.35;nan;100927.69;5055350;28;20771;-43
2021/07/02 04:46:57;;;;;;;49.80;24.80;;;;;;;28.96;nan;100934.66;5053487;28;20490;-45
2021/07/02 04:49:26;;;;;;;48.03;24.60;;;;;;;28.69;nan;100932.81;5054925;28;20935;-46
2021/07/02 04:51:53;;;;;;;48.47;22.93;;;;;;;29.49;nan;100936.44;5053918;28;20481;-45
2021/07/02 04:54:21;;;;;;;37.77;22.67;;;;;;;28.79;nan;100945.78;5055079;28;20466;-44
2021/07/02 04:56:49;;;;;;;40.77;22.70;;;;;;;29.03;nan;100940.63;5053498;28;20484;-43
2021/07/02 04:59:18;;;;;;;43.30;22.83;;;;;;;28.53;nan;100943.03;5054915;28;20487;-43
2021/07/02 05:01:46;;;;;;;50.33;24.70;;;;;;;28.56;nan;100940.28;5053580;28;20478;-42
2021/07/02 05:04:14;;;;;;;46.90;22.40;;;;;;;28.95;nan;100936.44;5055153;28;20462;-45
2021/07/02 05:06:43;;;;;;;45.67;22.40;;;;;;;29.29;nan;100934.47;5053686;28;20488;-46
2021/07/02 05:09:10;;;;;;;49.13;22.67;;;;;;;29.35;nan;100946.66;5055139;28;20480;-46
2021/07/02 05:11:39;;;;;;;42.27;24.63;;;;;;;29.11;nan;100933.28;5053721;28;20474;-47
2021/07/02 05:14:08;;;;;;;41.50;23.63;;;;;;;29.18;nan;100944.56;5054692;28;20462;-47
2021/07/02 05:16:35;;;;;;;43.60;22.90;;;;;;;29.87;nan;100938.66;5053482;28;20570;-44
2021/07/02 05:19:03;;;;;;;48.87;23.70;;;;;;;29.96;nan;100937.44;5058854;28;20495;-44
2021/07/02 05:21:30;;;;;;;48.27;22.70;;;;;;;30.19;nan;100946.38;5057798;28;20475;-44
2021/07/02 05:23:59;;;;;;;41.47;22.70;;;;;;;29.83;nan;100952.97;5058797;28;20458;-46
2021/07/02 05:26:27;;;;;;;51.40;26.33;;;;;;;29.87;nan;100951.94;5057273;28;20458;-44
2021/07/02 05:28:55;;;;;;;42.33;22.33;;;;;;;29.87;nan;100949.28;5058434;28;20456;-48
2021/07/02 05:31:22;;;;;;;40.43;21.60;;;;;;;29.73;nan;100946.28;5057773;28;20599;-43
2021/07/02 05:33:50;;;;;;;42.20;20.20;;;;;;;28.48;nan;100949.38;5058476;28;20508;-45
2021/07/02 05:36:17;;;;;;;43.17;22.20;;;;;;;28.51;nan;100951.97;5057060;28;20478;-43
2021/07/02 05:38:45;;;;;;;42.60;21.67;;;;;;;29.24;nan;100955.88;5058314;28;20491;-42
2021/07/02 05:41:14;;;;;;;39.97;19.80;;;;;;;28.55;nan;100946.50;5057615;28;20483;-42
2021/07/02 05:43:41;;;;;;;35.47;19.10;;;;;;;28.21;nan;100943.97;5058272;28;20482;-42
2021/07/02 05:46:09;;;;;;;34.13;17.93;;;;;;;28.84;nan;100946.50;5058325;28;20457;-43
2021/07/02 05:48:37;;;;;;;32.97;19.97;;;;;;;29.02;nan;100949.53;5057488;28;20463;-44
2021/07/02 05:51:04;;;;;;;38.20;19.10;;;;;;;29.00;nan;100948.72;5058362;28;20480;-44
2021/07/02 05:53:32;;;;;;;34.77;19.43;;;;;;;28.74;nan;100955.66;5056944;28;20493;-44
2021/07/02 05:55:59;;;;;;;33.03;19.97;;;;;;;29.17;nan;100954.31;5057792;28;20868;-46
2021/07/02 05:58:28;;;;;;;33.53;18.53;;;;;;;29.41;nan;100956.22;5056609;28;20483;-45
2021/07/02 06:00:56;;;;;;;33.87;15.93;;;;;;;27.92;nan;100951.84;5058237;28;20487;-43
2021/07/02 06:03:23;;;;;;;30.23;17.50;;;;;;;27.72;nan;100949.75;5056826;28;20571;-43
2021/07/02 06:05:54;;;;;;;33.70;18.80;;;;;;;28.08;nan;100951.44;5057656;28;20542;-45
2021/07/02 06:08:21;;;;;;;28.63;17.90;;;;;;;29.06;nan;100956.47;5056782;28;20787;-43
2021/07/02 06:10:49;;;;;;;29.67;17.17;;;;;;;29.40;nan;100955.34;5058178;28;20505;-44
2021/07/02 06:13:17;;;;;;;27.73;18.20;;;;;;;28.80;nan;100959.00;5056683;28;20505;-42
2021/07/02 06:15:46;;;;;;;32.07;16.67;;;;;;;29.55;nan;100958.41;5057419;28;20456;-43
2021/07/02 06:18:13;;;;;;;29.57;16.67;;;;;;;29.53;nan;100965.56;5056242;28;20489;-42
2021/07/02 06:20:41;;;;;;;29.90;14.93;;;;;;;29.21;nan;100966.59;5057668;28;20952;-45
2021/07/02 06:23:08;;;;;;;29.00;16.90;;;;;;;29.83;nan;100968.91;5056342;28;20921;-45
2021/07/02 06:25:36;;;;;;;26.43;16.63;;;;;;;29.89;nan;100971.34;5057264;28;20455;-44
2021/07/02 06:28:04;;;;;;;25.77;15.60;;;;;;;29.65;nan;100973.13;5056023;28;20483;-44
2021/07/02 06:30:31;;;;;;;29.67;16.37;;;;;;;30.07;nan;100968.94;5056584;28;20475;-46
2021/07/02 06:33:00;;;;;;;24.37;15.00;;;;;;;29.79;nan;100972.63;5056344;28;20483;-43
2021/07/02 06:35:28;;;;;;;30.43;16.00;;;;;;;30.05;nan;100974.31;5057131;28;20471;-42
2021/07/02 06:37:55;;;;;;;30.63;15.10;;;;;;;29.96;nan;100969.34;5056013;28;20788;-43
2021/07/02 06:40:23;;;;;;;33.70;16.40;;;;;;;29.81;nan;100969.91;5057386;28;20605;-43
2021/07/02 06:42:50;;;;;;;29.17;16.43;;;;;;;29.59;nan;100966.19;5056037;28;20483;-44
2021/07/02 06:45:18;;;;;;;27.87;16.47;;;;;;;29.67;nan;100970.41;5057480;28;20463;-43
2021/07/02 06:47:57;;;;;;;27.50;15.47;;;;;;;29.10;nan;100969.59;5055665;28;20485;-43
2021/07/02 06:50:28;;;;;;;30.43;16.77;;;;;;;29.12;nan;100964.25;5057362;28;20478;-43
2021/07/02 06:52:55;;;;;;;32.10;16.80;;;;;;;29.19;nan;100963.13;5056274;28;20487;-46
2021/07/02 06:55:23;;;;;;;35.97;18.67;;;;;;;29.61;nan;100968.81;5057272;28;20460;-43
2021/07/02 06:57:51;;;;;;;28.40;16.20;;;;;;;29.29;nan;100968.09;5056167;28;20486;-42
2021/07/02 07:00:19;;;;;;;32.03;17.57;;;;;;;29.57;nan;100961.91;5057016;28;20800;-42
2021/07/02 07:02:48;;;;;;;29.30;16.87;;;;;;;29.36;nan;100959.88;5055996;28;20479;-42
2021/07/02 07:05:16;;;;;;;32.90;16.80;;;;;;;29.72;nan;100961.34;5057434;28;20890;-42
2021/07/02 07:07:46;;;;;;;44.33;17.20;;;;;;;29.65;nan;100968.66;5055409;28;20490;-45
2021/07/02 07:10:13;;;;;;;32.03;17.83;;;;;;;29.67;nan;100962.44;5056912;28;20476;-42
2021/07/02 07:12:41;;;;;;;28.47;15.00;;;;;;;29.22;nan;100965.66;5055811;28;20484;-43
2021/07/02 07:15:12;;;;;;;29.17;14.73;;;;;;;29.06;nan;100961.78;5057100;28;20549;-43
2021/07/02 07:17:39;;;;;;;27.23;16.13;;;;;;;29.36;nan;100970.50;5056530;28;20488;-42
2021/07/02 07:20:07;;;;;;;29.63;14.77;;;;;;;28.74;nan;100972.47;5060662;28;20496;-45
2021/07/02 07:22:35;;;;;;;29.07;15.90;;;;;;;29.28;nan;100969.03;5054939;28;20923;-44
2021/07/02 07:25:06;;;;;;;28.93;16.30;;;;;;;28.65;nan;100978.94;5056958;28;20461;-45
2021/07/02 07:27:33;;;;;;;27.93;14.53;;;;;;;28.52;nan;100980.22;5055123;28;20932;-44
2021/07/02 07:30:01;;;;;;;25.47;14.23;;;;;;;29.97;nan;100976.41;5056404;28;20555;-43
2021/07/02 07:32:29;;;;;;;23.33;14.30;;;;;;;29.43;nan;100973.81;5048350;28;20494;-43
2021/07/02 07:34:58;;;;;;;24.90;14.00;;;;;;;29.74;nan;100974.56;5056735;28;20487;-44
2021/07/02 07:37:28;;;;;;;25.00;15.00;;;;;;;29.62;nan;100971.44;5054837;28;20954;-43
2021/07/02 07:39:56;;;;;;;31.63;14.67;;;;;;;28.65;nan;100975.44;5061606;28;20493;-42
2021/07/02 07:42:25;;;;;;;29.67;15.23;;;;;;;29.51;nan;100973.59;5055011;28;20492;-43
2021/07/02 07:44:52;;;;;;;26.57;14.20;;;;;;;29.75;nan;100985.16;5056486;28;20467;-44
2021/07/02 07:47:21;;;;;;;25.70;13.73;;;;;;;30.00;nan;100981.59;5055099;28;20571;-46
2021/07/02 07:49:48;;;;;;;22.07;13.13;;;;;;;30.62;nan;100974.91;5056374;28;20475;-45
2021/07/02 07:52:19;;;;;;;21.83;13.47;;;;;;;29.87;nan;100975.00;5054927;28;20493;-45
2021/07/02 07:54:46;;;;;;;27.30;15.13;;;;;;;30.20;nan;100966.75;5056191;28;20464;-42
2021/07/02 07:57:14;;;;;;;27.20;13.40;;;;;;;29.81;nan;100961.91;5054757;28;20516;-44
2021/07/02 07:59:43;;;;;;;22.03;12.50;;;;;;;29.76;nan;100957.66;5056243;28;20489;-43
2021/07/02 08:02:10;;;;;;;25.60;12.07;;;;;;;29.51;nan;100958.53;5051935;28;20503;-44
2021/07/02 08:04:38;;;;;;;23.73;13.10;;;;;;;30.14;nan;100965.16;5063836;28;20465;-47
2021/07/02 08:07:05;;;;;;;18.07;9.97;;;;;;;29.32;nan;100973.34;5054257;28;20799;-43
2021/07/02 08:09:33;;;;;;;21.60;11.90;;;;;;;29.40;nan;100979.25;5056237;28;20478;-43
2021/07/02 08:12:01;;;;;;;25.60;13.80;;;;;;;30.20;nan;100974.72;5050943;28;20933;-44
2021/07/02 08:14:28;;;;;;;17.13;11.53;;;;;;;30.01;nan;100972.72;5064733;28;20463;-43
2021/07/02 08:16:57;;;;;;;17.73;11.73;;;;;;;30.76;nan;100982.38;5053553;28;20481;-42
2021/07/02 08:19:25;;;;;;;21.97;12.60;;;;;;;30.96;nan;100977.13;5055749;28;20932;-44
2021/07/02 08:21:52;;;;;;;19.40;11.80;;;;;;;31.05;nan;100981.19;5054455;28;20488;-44
2021/07/02 08:24:20;;;;;;;33.37;19.53;;;;;;;30.68;nan;100982.69;5055892;28;20465;-42
2021/07/02 08:26:55;;;;;;;21.63;11.70;;;;;;;31.46;nan;100990.19;5054338;28;20776;-44
2021/07/02 08:29:26;;;;;;;17.97;11.90;;;;;;;32.33;nan;100987.28;5055691;28;20482;-45
2021/07/02 08:31:55;;;;;;;22.40;12.23;;;;;;;32.39;nan;100991.44;5054218;28;20474;-42
2021/07/02 08:34:24;;;;;;;17.40;10.17;;;;;;;31.24;nan;100997.31;5055792;28;20462;-44
2021/07/02 08:36:51;;;;;;;19.60;11.93;;;;;;;31.45;nan;100983.16;5053861;28;20484;-44
2021/07/02 08:39:19;;;;;;;16.17;10.37;;;;;;;31.82;nan;100988.69;5055472;28;20487;-45
2021/07/02 08:41:47;;;;;;;18.67;10.33;;;;;;;32.43;nan;100985.06;5048643;28;20528;-42
2021/07/02 08:44:14;;;;;;;17.53;10.57;;;;;;;32.41;nan;100989.63;5066202;28;20472;-43
2021/07/02 08:46:43;;;;;;;17.17;10.60;;;;;;;31.09;nan;100993.47;5053735;28;20483;-43
2021/07/02 08:49:28;;;;;;;21.63;11.60;;;;;;;30.89;nan;100996.06;5055261;28;21012;-48
2021/07/02 08:51:56;;;;;;;17.40;10.10;;;;;;;31.76;nan;100992.47;5053553;28;20482;-43
2021/07/02 08:54:24;;;;;;;18.83;11.47;;;;;;;31.74;nan;100989.03;5055377;28;20464;-43
2021/07/02 08:56:57;;;;;;;17.80;10.57;;;;;;;31.06;nan;100998.91;5050364;28;20485;-44
2021/07/02 08:59:26;;;;;;;28.40;11.93;;;;;;;31.28;nan;100998.06;5064702;28;20503;-47
2021/07/02 09:01:54;;;;;;;19.50;10.67;;;;;;;31.71;nan;100997.13;5054210;28;20483;-44
2021/07/02 09:04:24;;;;;;;19.30;11.40;;;;;;;32.26;nan;100999.19;5055342;28;20506;-45
2021/07/02 09:07:06;;;;;;;17.20;11.50;;;;;;;32.53;nan;100992.63;5053815;28;20481;-43
2021/07/02 09:09:55;;;;;;;20.80;11.23;;;;;;;33.21;nan;100989.38;5055263;28;20477;-44
2021/07/02 09:12:25;;;;;;;21.20;10.80;;;;;;;31.85;nan;100994.78;5053950;28;20477;-44
2021/07/02 09:15:04;;;;;;;20.30;10.70;;;;;;;31.87;nan;100994.69;5055668;28;20486;-43
2021/07/02 09:17:33;;;;;;;15.87;9.83;;;;;;;31.96;nan;101006.75;5053342;28;20521;-43
2021/07/02 09:20:06;;;;;;;11.80;8.60;;;;;;;31.68;nan;101010.63;5054911;28;20472;-44
2021/07/02 09:22:46;;;;;;;14.90;8.83;;;;;;;32.08;nan;101008.03;5053917;28;20491;-44
2021/07/02 09:25:22;;;;;;;14.70;8.40;;;;;;;31.90;nan;101011.47;5055324;28;20464;-43
2021/07/02 09:27:51;;;;;;;16.83;9.53;;;;;;;32.98;nan;101010.09;5057264;28;20493;-47
2021/07/02 09:30:19;;;;;;;14.70;8.60;;;;;;;32.84;nan;101017.88;5057109;28;20473;-44
2021/07/02 09:32:58;;;;;;;16.93;9.87;;;;;;;31.39;nan;101011.78;5053809;28;20708;-47
2021/07/02 09:35:31;;;;;;;18.43;11.10;;;;;;;32.58;nan;101009.31;5054582;28;20466;-47
2021/07/02 09:38:02;;;;;;;10.73;5.83;;;;;;;31.43;nan;101017.00;5053598;28;20480;-47
2021/07/02 09:40:31;;;;;;;12.80;6.13;;;;;;;31.35;nan;101020.84;5054759;28;20486;-43
2021/07/02 09:43:01;;;;;;;14.80;7.10;;;;;;;31.78;nan;101018.16;5053359;28;20480;-44
2021/07/02 09:45:29;;;;;;;14.13;6.93;;;;;;;32.26;nan;101012.53;5054755;28;20483;-45
2021/07/02 09:47:57;;;;;;;14.73;7.30;;;;;;;32.62;nan;101002.88;5053687;28;20797;-44
2021/07/02 09:50:26;;;;;;;13.30;7.73;;;;;;;33.41;nan;101016.88;5054480;28;20962;-46
2021/07/02 09:52:58;;;;;;;17.40;8.60;;;;;;;32.83;nan;101008.13;5057133;28;20485;-44
2021/07/02 09:55:28;;;;;;;12.07;7.27;;;;;;;31.78;nan;101017.28;5036315;28;20462;-45
2021/07/02 09:58:08;;;;;;;13.63;7.73;;;;;;;31.12;nan;101017.31;5033825;28;20797;-48
2021/07/02 10:00:40;;;;;;;12.60;7.60;;;;;;;31.26;nan;101021.19;5034928;28;20485;-45
2021/07/02 10:03:08;;;;;;;12.77;7.70;;;;;;;32.09;nan;101023.09;5034283;28;20509;-44
2021/07/02 10:05:53;;;;;;;12.23;7.93;;;;;;;32.81;nan;101020.69;5038190;28;20472;-46
2021/07/02 10:08:23;;;;;;;12.60;7.00;;;;;;;31.91;nan;101014.97;5036987;28;20495;-44
2021/07/02 10:10:53;;;;;;;15.00;8.63;;;;;;;32.30;nan;101015.91;5038762;28;20497;-44
2021/07/02 10:13:23;;;;;;;13.37;7.83;;;;;;;32.94;nan;101013.81;5043548;28;20487;-46
2021/07/02 10:15:51;;;;;;;12.97;7.30;;;;;;;33.08;nan;101023.88;5050241;28;20462;-44
2021/07/02 10:18:19;;;;;;;15.43;8.30;;;;;;;32.55;nan;101025.47;5056409;28;20544;-44
2021/07/02 10:20:47;;;;;;;15.83;7.83;;;;;;;33.07;nan;101021.25;5058222;28;20802;-45
2021/07/02 10:23:21;;;;;;;12.70;7.90;;;;;;;33.97;nan;101019.38;5056870;28;20514;-43
2021/07/02 10:25:54;;;;;;;13.70;7.70;;;;;;;33.35;nan;101019.88;5057900;28;20807;-43
2021/07/02 10:28:22;;;;;;;14.10;8.00;;;;;;;33.70;nan;101022.59;5056548;28;20480;-47
2021/07/02 10:30:50;;;;;;;12.07;7.30;;;;;;;33.60;nan;101021.31;5057758;28;20480;-45
2021/07/02 10:33:19;;;;;;;10.10;6.90;;;;;;;33.02;nan;101021.50;5063213;28;20500;-45
2021/07/02 10:35:51;;;;;;;15.70;8.03;;;;;;;32.62;nan;101026.03;5057701;28;20499;-43
2021/07/02 10:38:19;;;;;;;11.83;7.60;;;;;;;32.68;nan;101021.28;5062807;28;20494;-45
2021/07/02 10:40:47;;;;;;;14.27;8.10;;;;;;;32.42;nan;101030.50;5057938;28;20497;-45
2021/07/02 10:43:21;;;;;;;15.33;8.17;;;;;;;32.73;nan;101015.72;5056699;28;20483;-44
2021/07/02 10:46:25;;;;;;;19.03;9.63;;;;;;;32.45;nan;101028.56;5057647;28;20471;-43
2021/07/02 10:49:03;;;;;;;15.17;8.90;;;;;;;33.22;nan;101023.16;5057146;28;20450;-47
2021/07/02 10:51:50;;;;;;;14.27;7.90;;;;;;;33.53;nan;101020.78;5051735;28;20468;-45
2021/07/02 10:54:33;;;;;;;16.13;9.07;;;;;;;33.02;nan;101028.63;5057533;28;20463;-49
2021/07/02 10:57:19;;;;;;;11.93;7.87;;;;;;;32.85;nan;101032.94;5052542;28;20485;-45
2021/07/02 11:00:13;;;;;;;14.97;9.53;;;;;;;32.67;nan;101026.69;5063924;28;20483;-47
2021/07/02 11:02:41;;;;;;;15.20;7.37;;;;;;;32.60;nan;101026.09;5055914;28;20483;-45
2021/07/02 11:05:27;;;;;;;18.10;10.33;;;;;;;32.98;nan;101019.91;5057468;28;20813;-47
2021/07/02 11:07:55;;;;;;;14.17;7.90;;;;;;;32.52;nan;101030.94;5055651;28;20910;-45
2021/07/02 11:10:23;;;;;;;13.93;8.13;;;;;;;33.20;nan;101027.72;5056622;28;20487;-48
2021/07/02 11:13:01;;;;;;;13.83;8.30;;;;;;;34.33;nan;101026.41;5055497;28;20533;-45
2021/07/02 11:15:31;;;;;;;14.47;7.57;;;;;;;33.58;nan;101029.41;5056132;28;20458;-47
2021/07/02 11:18:13;;;;;;;11.00;7.00;;;;;;;33.85;nan;101030.75;5055304;28;20479;-48
2021/07/02 11:20:41;;;;;;;12.60;7.30;;;;;;;33.42;nan;101029.31;5056540;28;20565;-46
2021/07/02 11:23:22;;;;;;;15.07;8.63;;;;;;;33.11;nan;101029.03;5055155;28;20489;-44
2021/07/02 11:25:55;;;;;;;15.70;10.33;;;;;;;33.27;nan;101022.94;5056419;28;20452;-46
2021/07/02 11:28:54;;;;;;;14.93;7.53;;;;;;;33.96;nan;101022.13;5054852;28;20945;-48
2021/07/02 11:31:41;;;;;;;17.17;7.27;;;;;;;34.13;nan;101015.94;5055521;28;20796;-43
2021/07/02 11:34:13;;;;;;;11.40;7.23;;;;;;;33.25;nan;101016.78;5056416;28;20473;-45